TimeEST,TemperatureF,Dew PointF,Humidity,Sea Level PressureIn,VisibilityMPH,Wind Direction,Wind SpeedMPH,Gust SpeedMPH,PrecipitationIn,Events,Conditions,WindDirDegrees,DateUTC
12:51 AM,12.0,-4.0,49,30.33,10.0,West,9.2,-,N/A,,Overcast,280,2013-01-23 05:51:00
1:51 AM,12.0,-4.0,49,30.33,10.0,WNW,10.4,-,N/A,,Overcast,300,2013-01-23 06:51:00
2:51 AM,10.9,-5.1,49,30.34,10.0,WNW,11.5,-,N/A,,Scattered Clouds,300,2013-01-23 07:51:00
3:51 AM,10.0,-4.0,53,30.34,10.0,WNW,9.2,-,N/A,,Scattered Clouds,300,2013-01-23 08:51:00
4:51 AM,9.0,-2.9,59,30.34,10.0,WNW,6.9,-,N/A,,Clear,290,2013-01-23 09:51:00
5:51 AM,9.0,-4.0,56,30.35,10.0,WNW,8.1,-,N/A,,Clear,290,2013-01-23 10:51:00
6:51 AM,9.0,-4.0,56,30.36,10.0,WNW,5.8,-,N/A,,Clear,290,2013-01-23 11:51:00
7:51 AM,9.0,-2.9,59,30.37,10.0,WSW,3.5,-,N/A,,Clear,250,2013-01-23 12:51:00
8:51 AM,10.9,-2.0,56,30.38,10.0,West,9.2,-,N/A,,Clear,270,2013-01-23 13:51:00
9:51 AM,14.0,-2.9,47,30.38,10.0,West,11.5,18.4,N/A,,Clear,280,2013-01-23 14:51:00
10:51 AM,17.1,-4.0,39,30.37,10.0,WSW,10.4,18.4,N/A,,Mostly Cloudy,240,2013-01-23 15:51:00
11:51 AM,19.0,-6.0,33,30.34,10.0,West,16.1,21.9,N/A,,Overcast,280,2013-01-23 16:51:00
12:51 PM,19.4,-5.8,33,30.13,10.0,West,17.3,23.0,N/A,,Overcast,270,2013-01-23 17:51:00
1:51 PM,21.0,-2.0,36,30.27,10.0,West,9.2,17.3,N/A,,Overcast,270,2013-01-23 18:51:00
2:51 PM,19.9,6.1,55,30.27,7.0,West,11.5,-,0.00,Snow,Light Snow,260,2013-01-23 19:51:00
3:51 PM,19.0,8.1,62,30.26,9.0,WSW,9.2,-,0.00,Snow,Light Snow,250,2013-01-23 20:51:00
4:51 PM,19.0,9.0,65,30.25,10.0,WSW,5.8,-,0.00,,Overcast,250,2013-01-23 21:51:00
5:51 PM,19.9,9.0,62,30.21,10.0,WSW,3.5,-,N/A,,Overcast,240,2013-01-23 22:51:00
6:51 PM,19.9,9.0,62,30.19,10.0,Calm,Calm,-,N/A,,Overcast,0,2013-01-23 23:51:00
7:51 PM,21.0,9.0,60,30.17,10.0,Calm,Calm,-,N/A,,Overcast,0,2013-01-24 00:51:00
8:51 PM,21.2,10.4,63,29.97,10.0,SSW,6.9,-,N/A,,Overcast,210,2013-01-24 01:51:00
9:51 PM,23.0,10.9,60,30.10,10.0,WSW,3.5,-,N/A,,Overcast,240,2013-01-24 02:51:00
10:51 PM,24.1,12.0,60,30.08,10.0,WSW,3.5,-,N/A,,Overcast,250,2013-01-24 03:51:00
11:51 PM,26.1,12.9,58,30.06,10.0,West,6.9,-,N/A,,Overcast,280,2013-01-24 04:51:00